sensor_id;sensor_type;location;lat;lon;timestamp;temperature;humidity
54264;DHT22;40178;53.042;6.406;2022-10-17T00:01:04;10.90;99.90
54264;DHT22;40178;53.042;6.406;2022-10-17T00:03:29;10.90;99.90
54264;DHT22;40178;53.042;6.406;2022-10-17T00:05:55;10.90;99.90
54264;DHT22;40178;53.042;6.406;2022-10-17T00:08:21;10.80;99.90
54264;DHT22;40178;53.042;6.406;2022-10-17T00:10:55;10.90;99.90
54264;DHT22;40178;53.042;6.406;2022-10-17T00:13:21;10.80;99.90
54264;DHT22;40178;53.042;6.406;2022-10-17T00:15:47;10.80;99.90
54264;DHT22;40178;53.042;6.406;2022-10-17T00:18:12;10.80;99.90
54264;DHT22;40178;53.042;6.406;2022-10-17T00:20:38;10.90;99.90
54264;DHT22;40178;53.042;6.406;2022-10-17T00:23:04;11.00;99.90
54264;DHT22;40178;53.042;6.406;2022-10-17T00:25:29;11.10;99.90
54264;DHT22;40178;53.042;6.406;2022-10-17T00:27:55;11.10;99.90
54264;DHT22;40178;53.042;6.406;2022-10-17T00:30:20;11.10;99.90
54264;DHT22;40178;53.042;6.406;2022-10-17T00:32:46;11.10;99.90
54264;DHT22;40178;53.042;6.406;2022-10-17T00:35:11;11.30;99.90
54264;DHT22;40178;53.042;6.406;2022-10-17T00:37:37;11.30;99.90
54264;DHT22;40178;53.042;6.406;2022-10-17T00:40:04;11.40;99.90
54264;DHT22;40178;53.042;6.406;2022-10-17T00:42:30;11.50;99.90
54264;DHT22;40178;53.042;6.406;2022-10-17T00:47:31;11.60;99.90
54264;DHT22;40178;53.042;6.406;2022-10-17T00:49:58;11.60;99.90
54264;DHT22;40178;53.042;6.406;2022-10-17T00:52:26;11.60;99.90
54264;DHT22;40178;53.042;6.406;2022-10-17T00:55:02;11.60;99.90
54264;DHT22;40178;53.042;6.406;2022-10-17T00:57:29;11.60;99.90
54264;DHT22;40178;53.042;6.406;2022-10-17T00:59:56;11.70;99.90
54264;DHT22;40178;53.042;6.406;2022-10-17T01:02:23;11.70;99.90
54264;DHT22;40178;53.042;6.406;2022-10-17T01:04:51;11.80;99.90
54264;DHT22;40178;53.042;6.406;2022-10-17T01:07:19;11.70;99.90
54264;DHT22;40178;53.042;6.406;2022-10-17T01:09:46;11.80;99.90
54264;DHT22;40178;53.042;6.406;2022-10-17T01:23:40;11.90;99.90
54264;DHT22;40178;53.042;6.406;2022-10-17T01:26:21;11.90;99.90
54264;DHT22;40178;53.042;6.406;2022-10-17T01:29:30;11.90;99.90
54264;DHT22;40178;53.042;6.406;2022-10-17T01:32:17;12.00;99.90
54264;DHT22;40178;53.042;6.406;2022-10-17T01:34:59;11.90;99.90
54264;DHT22;40178;53.042;6.406;2022-10-17T01:40:11;12.00;99.90
54264;DHT22;40178;53.042;6.406;2022-10-17T01:42:57;12.00;99.90
54264;DHT22;40178;53.042;6.406;2022-10-17T01:48:23;11.90;99.90
54264;DHT22;40178;53.042;6.406;2022-10-17T01:50:53;11.90;99.90
54264;DHT22;40178;53.042;6.406;2022-10-17T01:53:29;11.90;99.90
54264;DHT22;40178;53.042;6.406;2022-10-17T01:55:59;11.80;99.90
54264;DHT22;40178;53.042;6.406;2022-10-17T01:58:35;11.80;99.90
54264;DHT22;40178;53.042;6.406;2022-10-17T02:01:05;11.80;99.90
54264;DHT22;40178;53.042;6.406;2022-10-17T02:03:32;11.70;99.90
54264;DHT22;40178;53.042;6.406;2022-10-17T02:05:59;11.70;99.90
54264;DHT22;40178;53.042;6.406;2022-10-17T02:08:26;11.70;99.90
54264;DHT22;40178;53.042;6.406;2022-10-17T02:11:05;11.70;99.90
54264;DHT22;40178;53.042;6.406;2022-10-17T02:14:11;11.70;99.90
54264;DHT22;40178;53.042;6.406;2022-10-17T02:19:44;11.70;99.90
54264;DHT22;40178;53.042;6.406;2022-10-17T02:25:25;11.70;99.90
54264;DHT22;40178;53.042;6.406;2022-10-17T02:30:41;11.70;99.90
54264;DHT22;40178;53.042;6.406;2022-10-17T02:33:12;11.70;99.90
54264;DHT22;40178;53.042;6.406;2022-10-17T02:35:44;11.90;99.90
54264;DHT22;40178;53.042;6.406;2022-10-17T02:38:11;11.90;99.90
54264;DHT22;40178;53.042;6.406;2022-10-17T02:40:38;11.90;99.90
54264;DHT22;40178;53.042;6.406;2022-10-17T02:43:05;12.00;99.90
54264;DHT22;40178;53.042;6.406;2022-10-17T02:45:31;12.00;99.90
54264;DHT22;40178;53.042;6.406;2022-10-17T02:48:29;11.90;99.90
54264;DHT22;40178;53.042;6.406;2022-10-17T02:51:23;12.10;99.90
54264;DHT22;40178;53.042;6.406;2022-10-17T02:54:15;12.10;99.90
54264;DHT22;40178;53.042;6.406;2022-10-17T02:56:54;12.10;99.90
54264;DHT22;40178;53.042;6.406;2022-10-17T02:59:24;12.00;99.90
54264;DHT22;40178;53.042;6.406;2022-10-17T03:01:51;12.20;99.90
54264;DHT22;40178;53.042;6.406;2022-10-17T03:04:17;12.10;99.90
54264;DHT22;40178;53.042;6.406;2022-10-17T03:06:44;12.20;99.90
54264;DHT22;40178;53.042;6.406;2022-10-17T03:09:10;12.10;99.90
54264;DHT22;40178;53.042;6.406;2022-10-17T03:11:36;12.10;99.90
54264;DHT22;40178;53.042;6.406;2022-10-17T03:14:01;12.00;99.90
54264;DHT22;40178;53.042;6.406;2022-10-17T03:16:30;12.20;99.90
54264;DHT22;40178;53.042;6.406;2022-10-17T03:18:55;12.00;99.90
54264;DHT22;40178;53.042;6.406;2022-10-17T03:21:21;12.20;99.90
54264;DHT22;40178;53.042;6.406;2022-10-17T03:23:46;12.10;99.90
54264;DHT22;40178;53.042;6.406;2022-10-17T03:26:12;12.10;99.90
54264;DHT22;40178;53.042;6.406;2022-10-17T03:28:38;12.10;99.90
54264;DHT22;40178;53.042;6.406;2022-10-17T03:31:12;12.10;99.90
54264;DHT22;40178;53.042;6.406;2022-10-17T03:33:38;12.00;99.90
54264;DHT22;40178;53.042;6.406;2022-10-17T03:36:09;12.10;99.90
54264;DHT22;40178;53.042;6.406;2022-10-17T03:38:35;12.10;99.90
54264;DHT22;40178;53.042;6.406;2022-10-17T03:41:01;12.10;99.90
54264;DHT22;40178;53.042;6.406;2022-10-17T03:43:27;12.20;99.90
54264;DHT22;40178;53.042;6.406;2022-10-17T03:45:52;12.10;99.90
54264;DHT22;40178;53.042;6.406;2022-10-17T03:48:18;12.20;99.90
54264;DHT22;40178;53.042;6.406;2022-10-17T03:50:43;12.30;99.90
54264;DHT22;40178;53.042;6.406;2022-10-17T03:53:09;12.20;99.90
54264;DHT22;40178;53.042;6.406;2022-10-17T03:55:34;12.10;99.90
54264;DHT22;40178;53.042;6.406;2022-10-17T03:58:00;12.20;99.90
54264;DHT22;40178;53.042;6.406;2022-10-17T04:00:25;12.30;99.90
54264;DHT22;40178;53.042;6.406;2022-10-17T04:02:51;12.30;99.90
54264;DHT22;40178;53.042;6.406;2022-10-17T04:05:29;12.40;99.90
54264;DHT22;40178;53.042;6.406;2022-10-17T04:07:57;12.40;99.90
54264;DHT22;40178;53.042;6.406;2022-10-17T04:10:23;12.30;99.90
54264;DHT22;40178;53.042;6.406;2022-10-17T04:12:48;12.40;99.90
54264;DHT22;40178;53.042;6.406;2022-10-17T04:15:19;12.40;99.90
54264;DHT22;40178;53.042;6.406;2022-10-17T04:17:45;12.90;99.90
54264;DHT22;40178;53.042;6.406;2022-10-17T04:20:11;12.90;99.90
54264;DHT22;40178;53.042;6.406;2022-10-17T04:22:37;12.90;99.90
54264;DHT22;40178;53.042;6.406;2022-10-17T04:25:03;12.80;99.90
54264;DHT22;40178;53.042;6.406;2022-10-17T04:27:28;13.00;99.90
54264;DHT22;40178;53.042;6.406;2022-10-17T04:29:54;13.30;99.90
54264;DHT22;40178;53.042;6.406;2022-10-17T04:32:19;13.10;99.90
54264;DHT22;40178;53.042;6.406;2022-10-17T04:34:48;13.10;99.90
54264;DHT22;40178;53.042;6.406;2022-10-17T04:37:14;13.30;99.90
54264;DHT22;40178;53.042;6.406;2022-10-17T04:39:40;13.20;99.90
54264;DHT22;40178;53.042;6.406;2022-10-17T04:42:05;13.30;99.90
54264;DHT22;40178;53.042;6.406;2022-10-17T04:44:31;13.20;99.90
54264;DHT22;40178;53.042;6.406;2022-10-17T04:46:58;13.20;99.90
54264;DHT22;40178;53.042;6.406;2022-10-17T04:49:23;13.20;99.90
54264;DHT22;40178;53.042;6.406;2022-10-17T04:51:49;13.10;99.90
54264;DHT22;40178;53.042;6.406;2022-10-17T04:54:19;13.20;99.90
54264;DHT22;40178;53.042;6.406;2022-10-17T04:56:53;13.30;99.90
54264;DHT22;40178;53.042;6.406;2022-10-17T04:59:21;13.20;99.90
54264;DHT22;40178;53.042;6.406;2022-10-17T05:01:55;13.20;99.90
54264;DHT22;40178;53.042;6.406;2022-10-17T05:04:26;13.30;99.90
54264;DHT22;40178;53.042;6.406;2022-10-17T05:06:54;13.30;99.90
54264;DHT22;40178;53.042;6.406;2022-10-17T05:09:29;13.30;99.90
54264;DHT22;40178;53.042;6.406;2022-10-17T05:12:04;13.30;99.90
54264;DHT22;40178;53.042;6.406;2022-10-17T05:14:33;13.20;99.90
54264;DHT22;40178;53.042;6.406;2022-10-17T05:17:15;13.30;99.90
54264;DHT22;40178;53.042;6.406;2022-10-17T05:19:46;13.30;99.90
54264;DHT22;40178;53.042;6.406;2022-10-17T05:22:24;13.60;99.90
54264;DHT22;40178;53.042;6.406;2022-10-17T05:24:55;13.80;99.90
54264;DHT22;40178;53.042;6.406;2022-10-17T05:27:21;13.30;99.90
54264;DHT22;40178;53.042;6.406;2022-10-17T05:29:49;13.50;99.90
54264;DHT22;40178;53.042;6.406;2022-10-17T05:32:51;13.30;99.90
54264;DHT22;40178;53.042;6.406;2022-10-17T05:35:21;13.80;99.90
54264;DHT22;40178;53.042;6.406;2022-10-17T05:37:56;13.20;99.90
54264;DHT22;40178;53.042;6.406;2022-10-17T05:40:46;13.30;99.90
54264;DHT22;40178;53.042;6.406;2022-10-17T05:43:15;13.40;99.90
54264;DHT22;40178;53.042;6.406;2022-10-17T05:45:43;13.60;99.90
54264;DHT22;40178;53.042;6.406;2022-10-17T05:48:14;13.40;99.90
54264;DHT22;40178;53.042;6.406;2022-10-17T05:50:48;13.60;99.90
54264;DHT22;40178;53.042;6.406;2022-10-17T05:53:16;13.20;99.90
54264;DHT22;40178;53.042;6.406;2022-10-17T05:55:57;13.40;99.90
54264;DHT22;40178;53.042;6.406;2022-10-17T05:58:41;12.90;99.90
54264;DHT22;40178;53.042;6.406;2022-10-17T06:01:09;13.40;99.90
54264;DHT22;40178;53.042;6.406;2022-10-17T06:03:40;13.40;99.90
54264;DHT22;40178;53.042;6.406;2022-10-17T06:06:23;13.40;99.90
54264;DHT22;40178;53.042;6.406;2022-10-17T06:08:51;13.40;99.90
54264;DHT22;40178;53.042;6.406;2022-10-17T06:11:25;13.60;99.90
54264;DHT22;40178;53.042;6.406;2022-10-17T06:13:51;13.70;99.90
54264;DHT22;40178;53.042;6.406;2022-10-17T06:16:19;13.90;99.90
54264;DHT22;40178;53.042;6.406;2022-10-17T06:18:49;13.60;99.90
54264;DHT22;40178;53.042;6.406;2022-10-17T06:21:23;13.80;99.90
54264;DHT22;40178;53.042;6.406;2022-10-17T06:24:35;13.90;99.90
54264;DHT22;40178;53.042;6.406;2022-10-17T06:27:14;14.30;99.90
54264;DHT22;40178;53.042;6.406;2022-10-17T06:29:49;14.20;99.90
54264;DHT22;40178;53.042;6.406;2022-10-17T06:32:15;13.30;99.90
54264;DHT22;40178;53.042;6.406;2022-10-17T06:34:41;14.30;99.90
54264;DHT22;40178;53.042;6.406;2022-10-17T06:37:06;14.00;99.90
54264;DHT22;40178;53.042;6.406;2022-10-17T06:39:34;14.00;99.90
54264;DHT22;40178;53.042;6.406;2022-10-17T06:42:00;14.10;99.90
54264;DHT22;40178;53.042;6.406;2022-10-17T06:44:26;14.10;99.90
54264;DHT22;40178;53.042;6.406;2022-10-17T06:46:55;14.30;99.90
54264;DHT22;40178;53.042;6.406;2022-10-17T06:49:21;14.40;99.90
54264;DHT22;40178;53.042;6.406;2022-10-17T06:51:46;14.40;99.90
54264;DHT22;40178;53.042;6.406;2022-10-17T06:54:12;14.40;99.90
54264;DHT22;40178;53.042;6.406;2022-10-17T06:56:37;14.50;99.90
54264;DHT22;40178;53.042;6.406;2022-10-17T06:59:03;14.50;99.90
54264;DHT22;40178;53.042;6.406;2022-10-17T07:01:30;14.60;99.90
54264;DHT22;40178;53.042;6.406;2022-10-17T07:03:56;14.60;99.90
54264;DHT22;40178;53.042;6.406;2022-10-17T07:06:22;14.50;99.90
54264;DHT22;40178;53.042;6.406;2022-10-17T07:08:49;14.60;99.90
54264;DHT22;40178;53.042;6.406;2022-10-17T07:11:19;14.70;99.90
54264;DHT22;40178;53.042;6.406;2022-10-17T07:13:46;14.60;99.90
54264;DHT22;40178;53.042;6.406;2022-10-17T07:16:13;15.00;99.90
54264;DHT22;40178;53.042;6.406;2022-10-17T07:18:39;14.80;99.90
54264;DHT22;40178;53.042;6.406;2022-10-17T07:21:05;14.80;99.90
54264;DHT22;40178;53.042;6.406;2022-10-17T07:26:00;14.80;99.90
54264;DHT22;40178;53.042;6.406;2022-10-17T07:28:26;14.90;99.90
54264;DHT22;40178;53.042;6.406;2022-10-17T07:30:52;14.90;99.90
54264;DHT22;40178;53.042;6.406;2022-10-17T07:33:17;15.00;99.90
54264;DHT22;40178;53.042;6.406;2022-10-17T07:35:43;15.00;99.90
54264;DHT22;40178;53.042;6.406;2022-10-17T07:38:08;15.00;99.90
54264;DHT22;40178;53.042;6.406;2022-10-17T07:40:34;15.10;99.90
54264;DHT22;40178;53.042;6.406;2022-10-17T07:43:00;15.10;99.90
54264;DHT22;40178;53.042;6.406;2022-10-17T07:45:25;15.20;99.90
54264;DHT22;40178;53.042;6.406;2022-10-17T07:47:58;15.30;99.90
54264;DHT22;40178;53.042;6.406;2022-10-17T07:50:24;15.40;99.90
54264;DHT22;40178;53.042;6.406;2022-10-17T07:52:49;15.30;99.90
54264;DHT22;40178;53.042;6.406;2022-10-17T07:55:15;15.50;99.90
54264;DHT22;40178;53.042;6.406;2022-10-17T07:57:41;15.50;99.90
54264;DHT22;40178;53.042;6.406;2022-10-17T08:00:07;15.50;99.90
54264;DHT22;40178;53.042;6.406;2022-10-17T08:02:33;15.70;99.90
54264;DHT22;40178;53.042;6.406;2022-10-17T08:04:59;15.70;99.90
54264;DHT22;40178;53.042;6.406;2022-10-17T08:07:24;15.90;99.90
54264;DHT22;40178;53.042;6.406;2022-10-17T08:09:50;15.80;99.90
54264;DHT22;40178;53.042;6.406;2022-10-17T08:12:15;15.90;99.90
54264;DHT22;40178;53.042;6.406;2022-10-17T08:14:42;16.00;99.90
54264;DHT22;40178;53.042;6.406;2022-10-17T08:17:08;15.90;99.90
54264;DHT22;40178;53.042;6.406;2022-10-17T08:19:37;16.00;99.90
54264;DHT22;40178;53.042;6.406;2022-10-17T08:22:04;16.10;99.90
54264;DHT22;40178;53.042;6.406;2022-10-17T08:24:29;16.00;99.90
54264;DHT22;40178;53.042;6.406;2022-10-17T08:26:55;16.20;99.90
54264;DHT22;40178;53.042;6.406;2022-10-17T08:29:22;16.10;99.90
54264;DHT22;40178;53.042;6.406;2022-10-17T08:31:48;16.20;99.90
54264;DHT22;40178;53.042;6.406;2022-10-17T08:34:14;16.30;99.90
54264;DHT22;40178;53.042;6.406;2022-10-17T08:36:40;16.30;99.90
54264;DHT22;40178;53.042;6.406;2022-10-17T08:39:06;16.30;99.90
54264;DHT22;40178;53.042;6.406;2022-10-17T08:47:05;16.40;99.90
54264;DHT22;40178;53.042;6.406;2022-10-17T08:49:51;16.50;99.90
54264;DHT22;40178;53.042;6.406;2022-10-17T08:55:03;16.60;99.90
54264;DHT22;40178;53.042;6.406;2022-10-17T08:57:29;16.50;99.90
54264;DHT22;40178;53.042;6.406;2022-10-17T08:59:55;16.40;99.90
54264;DHT22;40178;53.042;6.406;2022-10-17T09:02:47;16.40;99.90
54264;DHT22;40178;53.042;6.406;2022-10-17T09:05:33;16.40;99.90
54264;DHT22;40178;53.042;6.406;2022-10-17T09:08:13;16.40;99.90
54264;DHT22;40178;53.042;6.406;2022-10-17T09:10:44;16.60;99.90
54264;DHT22;40178;53.042;6.406;2022-10-17T09:13:51;16.60;99.90
54264;DHT22;40178;53.042;6.406;2022-10-17T09:22:05;16.80;99.90
54264;DHT22;40178;53.042;6.406;2022-10-17T09:24:46;16.80;99.90
54264;DHT22;40178;53.042;6.406;2022-10-17T09:27:25;16.70;99.90
54264;DHT22;40178;53.042;6.406;2022-10-17T09:29:58;16.70;99.90
54264;DHT22;40178;53.042;6.406;2022-10-17T09:32:27;16.70;99.90
54264;DHT22;40178;53.042;6.406;2022-10-17T09:34:53;16.60;99.90
54264;DHT22;40178;53.042;6.406;2022-10-17T09:37:21;16.60;99.90
54264;DHT22;40178;53.042;6.406;2022-10-17T09:39:49;16.70;99.90
54264;DHT22;40178;53.042;6.406;2022-10-17T09:42:24;16.60;99.90
54264;DHT22;40178;53.042;6.406;2022-10-17T09:45:02;16.60;99.90
54264;DHT22;40178;53.042;6.406;2022-10-17T09:47:37;16.50;99.90
54264;DHT22;40178;53.042;6.406;2022-10-17T09:50:27;16.40;99.90
54264;DHT22;40178;53.042;6.406;2022-10-17T09:52:54;16.40;99.90
54264;DHT22;40178;53.042;6.406;2022-10-17T09:57:58;16.30;99.90
54264;DHT22;40178;53.042;6.406;2022-10-17T10:03:23;16.30;99.90
54264;DHT22;40178;53.042;6.406;2022-10-17T10:06:01;16.10;99.90
54264;DHT22;40178;53.042;6.406;2022-10-17T10:08:33;16.00;99.90
54264;DHT22;40178;53.042;6.406;2022-10-17T10:11:02;16.10;99.90
54264;DHT22;40178;53.042;6.406;2022-10-17T10:13:30;16.10;99.90
54264;DHT22;40178;53.042;6.406;2022-10-17T10:16:13;16.00;99.90
54264;DHT22;40178;53.042;6.406;2022-10-17T10:18:39;16.00;99.90
54264;DHT22;40178;53.042;6.406;2022-10-17T10:21:07;16.10;99.90
54264;DHT22;40178;53.042;6.406;2022-10-17T10:23:33;15.90;99.90
54264;DHT22;40178;53.042;6.406;2022-10-17T10:26:11;15.90;99.90
54264;DHT22;40178;53.042;6.406;2022-10-17T10:28:38;16.10;99.90
54264;DHT22;40178;53.042;6.406;2022-10-17T10:31:07;15.90;99.90
54264;DHT22;40178;53.042;6.406;2022-10-17T10:33:36;16.10;99.90
54264;DHT22;40178;53.042;6.406;2022-10-17T10:36:05;16.20;99.90
54264;DHT22;40178;53.042;6.406;2022-10-17T10:38:32;16.00;99.90
54264;DHT22;40178;53.042;6.406;2022-10-17T10:41:02;16.00;99.90
54264;DHT22;40178;53.042;6.406;2022-10-17T10:43:41;16.10;99.90
54264;DHT22;40178;53.042;6.406;2022-10-17T10:46:20;16.10;99.90
54264;DHT22;40178;53.042;6.406;2022-10-17T10:48:57;16.20;99.90
54264;DHT22;40178;53.042;6.406;2022-10-17T10:51:45;16.20;99.90
54264;DHT22;40178;53.042;6.406;2022-10-17T10:54:13;16.00;99.90
54264;DHT22;40178;53.042;6.406;2022-10-17T10:56:43;16.00;99.90
54264;DHT22;40178;53.042;6.406;2022-10-17T11:04:42;16.10;99.90
54264;DHT22;40178;53.042;6.406;2022-10-17T11:07:21;16.10;99.90
54264;DHT22;40178;53.042;6.406;2022-10-17T11:12:38;16.40;99.90
54264;DHT22;40178;53.042;6.406;2022-10-17T11:17:42;16.40;99.90
54264;DHT22;40178;53.042;6.406;2022-10-17T11:20:33;16.40;99.90
54264;DHT22;40178;53.042;6.406;2022-10-17T11:23:13;16.40;99.90
54264;DHT22;40178;53.042;6.406;2022-10-17T11:25:44;16.20;99.90
54264;DHT22;40178;53.042;6.406;2022-10-17T11:28:15;16.30;99.90
54264;DHT22;40178;53.042;6.406;2022-10-17T11:33:33;16.20;99.90
54264;DHT22;40178;53.042;6.406;2022-10-17T11:36:05;16.30;99.90
54264;DHT22;40178;53.042;6.406;2022-10-17T11:38:48;16.40;99.90
54264;DHT22;40178;53.042;6.406;2022-10-17T11:43:57;16.40;99.90
54264;DHT22;40178;53.042;6.406;2022-10-17T11:46:26;16.20;99.90
54264;DHT22;40178;53.042;6.406;2022-10-17T11:49:15;16.20;99.90
54264;DHT22;40178;53.042;6.406;2022-10-17T11:52:22;16.40;99.90
54264;DHT22;40178;53.042;6.406;2022-10-17T11:54:56;16.40;99.90
54264;DHT22;40178;53.042;6.406;2022-10-17T11:57:45;16.50;99.90
54264;DHT22;40178;53.042;6.406;2022-10-17T12:00:25;16.50;99.90
54264;DHT22;40178;53.042;6.406;2022-10-17T12:06:01;16.50;99.90
54264;DHT22;40178;53.042;6.406;2022-10-17T12:08:52;16.50;99.90
54264;DHT22;40178;53.042;6.406;2022-10-17T12:13:55;16.70;99.90
54264;DHT22;40178;53.042;6.406;2022-10-17T12:21:26;16.60;99.90
54264;DHT22;40178;53.042;6.406;2022-10-17T12:23:53;16.50;99.90
54264;DHT22;40178;53.042;6.406;2022-10-17T12:26:27;16.60;99.90
54264;DHT22;40178;53.042;6.406;2022-10-17T12:28:53;16.80;99.90
54264;DHT22;40178;53.042;6.406;2022-10-17T12:33:51;16.80;99.90
54264;DHT22;40178;53.042;6.406;2022-10-17T12:38:44;16.70;99.90
54264;DHT22;40178;53.042;6.406;2022-10-17T12:41:09;16.60;99.90
54264;DHT22;40178;53.042;6.406;2022-10-17T12:43:46;16.70;99.90
54264;DHT22;40178;53.042;6.406;2022-10-17T12:46:12;16.80;99.90
54264;DHT22;40178;53.042;6.406;2022-10-17T12:48:59;16.60;99.90
54264;DHT22;40178;53.042;6.406;2022-10-17T12:51:25;16.50;99.90
54264;DHT22;40178;53.042;6.406;2022-10-17T12:54:09;16.60;99.90
54264;DHT22;40178;53.042;6.406;2022-10-17T12:56:42;16.70;99.90
54264;DHT22;40178;53.042;6.406;2022-10-17T12:59:23;16.60;99.90
54264;DHT22;40178;53.042;6.406;2022-10-17T13:01:56;16.50;99.90
54264;DHT22;40178;53.042;6.406;2022-10-17T13:04:23;16.40;99.90
54264;DHT22;40178;53.042;6.406;2022-10-17T13:06:53;16.40;99.90
54264;DHT22;40178;53.042;6.406;2022-10-17T13:09:27;16.30;99.90
54264;DHT22;40178;53.042;6.406;2022-10-17T13:11:54;16.20;99.90
54264;DHT22;40178;53.042;6.406;2022-10-17T13:14:22;16.20;99.90
54264;DHT22;40178;53.042;6.406;2022-10-17T13:17:00;16.20;99.90
54264;DHT22;40178;53.042;6.406;2022-10-17T13:19:46;16.00;99.90
54264;DHT22;40178;53.042;6.406;2022-10-17T13:22:20;16.10;99.90
54264;DHT22;40178;53.042;6.406;2022-10-17T13:24:46;16.00;99.90
54264;DHT22;40178;53.042;6.406;2022-10-17T13:27:29;15.80;99.90
54264;DHT22;40178;53.042;6.406;2022-10-17T13:30:01;15.70;99.90
54264;DHT22;40178;53.042;6.406;2022-10-17T13:32:37;15.80;99.90
54264;DHT22;40178;53.042;6.406;2022-10-17T13:35:12;15.60;99.90
54264;DHT22;40178;53.042;6.406;2022-10-17T13:37:43;15.60;99.90
54264;DHT22;40178;53.042;6.406;2022-10-17T13:40:17;15.60;99.90
54264;DHT22;40178;53.042;6.406;2022-10-17T13:42:44;15.50;99.90
54264;DHT22;40178;53.042;6.406;2022-10-17T13:45:29;15.70;99.90
54264;DHT22;40178;53.042;6.406;2022-10-17T13:47:55;15.70;99.90
54264;DHT22;40178;53.042;6.406;2022-10-17T13:50:39;15.70;99.90
54264;DHT22;40178;53.042;6.406;2022-10-17T13:58:28;15.60;99.90
54264;DHT22;40178;53.042;6.406;2022-10-17T14:00:54;15.50;99.90
54264;DHT22;40178;53.042;6.406;2022-10-17T14:03:21;15.50;99.90
54264;DHT22;40178;53.042;6.406;2022-10-17T14:06:10;15.50;99.90
54264;DHT22;40178;53.042;6.406;2022-10-17T14:08:38;15.60;99.90
54264;DHT22;40178;53.042;6.406;2022-10-17T14:11:22;15.60;99.90
54264;DHT22;40178;53.042;6.406;2022-10-17T14:13:49;15.70;99.90
54264;DHT22;40178;53.042;6.406;2022-10-17T14:16:16;15.80;99.90
54264;DHT22;40178;53.042;6.406;2022-10-17T14:18:46;15.90;99.90
54264;DHT22;40178;53.042;6.406;2022-10-17T14:21:22;16.00;99.90
54264;DHT22;40178;53.042;6.406;2022-10-17T14:23:48;16.00;99.90
54264;DHT22;40178;53.042;6.406;2022-10-17T14:26:20;15.80;99.90
54264;DHT22;40178;53.042;6.406;2022-10-17T14:29:04;15.90;99.90
54264;DHT22;40178;53.042;6.406;2022-10-17T14:31:34;15.70;99.90
54264;DHT22;40178;53.042;6.406;2022-10-17T14:34:03;15.80;99.90
54264;DHT22;40178;53.042;6.406;2022-10-17T14:36:37;15.90;99.90
54264;DHT22;40178;53.042;6.406;2022-10-17T14:39:06;15.90;99.90
54264;DHT22;40178;53.042;6.406;2022-10-17T14:41:33;15.80;99.90
54264;DHT22;40178;53.042;6.406;2022-10-17T14:44:07;15.80;99.90
54264;DHT22;40178;53.042;6.406;2022-10-17T14:46:43;15.70;99.90
54264;DHT22;40178;53.042;6.406;2022-10-17T14:49:18;15.60;99.90
54264;DHT22;40178;53.042;6.406;2022-10-17T14:52:11;15.70;99.90
54264;DHT22;40178;53.042;6.406;2022-10-17T14:54:37;15.50;99.90
54264;DHT22;40178;53.042;6.406;2022-10-17T14:57:17;15.70;99.90
54264;DHT22;40178;53.042;6.406;2022-10-17T14:59:43;15.60;99.90
54264;DHT22;40178;53.042;6.406;2022-10-17T15:02:09;15.50;99.90
54264;DHT22;40178;53.042;6.406;2022-10-17T15:04:35;15.60;99.90
54264;DHT22;40178;53.042;6.406;2022-10-17T15:07:01;15.60;99.90
54264;DHT22;40178;53.042;6.406;2022-10-17T15:09:26;15.60;99.90
54264;DHT22;40178;53.042;6.406;2022-10-17T15:11:54;15.60;99.90
54264;DHT22;40178;53.042;6.406;2022-10-17T15:14:20;15.60;99.90
54264;DHT22;40178;53.042;6.406;2022-10-17T15:16:45;15.50;99.90
54264;DHT22;40178;53.042;6.406;2022-10-17T15:19:12;15.50;99.90
54264;DHT22;40178;53.042;6.406;2022-10-17T15:21:38;15.50;99.90
54264;DHT22;40178;53.042;6.406;2022-10-17T15:24:03;15.50;99.90
54264;DHT22;40178;53.042;6.406;2022-10-17T15:26:31;15.70;99.90
54264;DHT22;40178;53.042;6.406;2022-10-17T15:28:58;15.70;99.90
54264;DHT22;40178;53.042;6.406;2022-10-17T15:31:26;15.70;99.90
54264;DHT22;40178;53.042;6.406;2022-10-17T15:33:52;15.70;99.90
54264;DHT22;40178;53.042;6.406;2022-10-17T15:36:23;15.60;99.90
54264;DHT22;40178;53.042;6.406;2022-10-17T15:38:55;15.50;99.90
54264;DHT22;40178;53.042;6.406;2022-10-17T15:41:23;15.40;99.90
54264;DHT22;40178;53.042;6.406;2022-10-17T15:43:49;15.40;99.90
54264;DHT22;40178;53.042;6.406;2022-10-17T15:46:21;15.30;99.90
54264;DHT22;40178;53.042;6.406;2022-10-17T15:48:48;15.20;99.90
54264;DHT22;40178;53.042;6.406;2022-10-17T15:51:15;15.10;99.90
54264;DHT22;40178;53.042;6.406;2022-10-17T15:53:41;15.10;99.90
54264;DHT22;40178;53.042;6.406;2022-10-17T15:56:07;15.00;99.90
54264;DHT22;40178;53.042;6.406;2022-10-17T15:58:39;15.00;99.90
54264;DHT22;40178;53.042;6.406;2022-10-17T16:01:05;14.90;99.90
54264;DHT22;40178;53.042;6.406;2022-10-17T16:03:32;14.90;99.90
54264;DHT22;40178;53.042;6.406;2022-10-17T16:05:57;15.00;99.90
54264;DHT22;40178;53.042;6.406;2022-10-17T16:08:23;14.80;99.90
54264;DHT22;40178;53.042;6.406;2022-10-17T16:10:50;14.80;99.90
54264;DHT22;40178;53.042;6.406;2022-10-17T16:13:21;14.90;99.90
54264;DHT22;40178;53.042;6.406;2022-10-17T16:15:47;14.80;99.90
54264;DHT22;40178;53.042;6.406;2022-10-17T16:18:13;14.80;99.90
54264;DHT22;40178;53.042;6.406;2022-10-17T16:20:38;14.60;99.90
54264;DHT22;40178;53.042;6.406;2022-10-17T16:23:04;14.70;99.90
54264;DHT22;40178;53.042;6.406;2022-10-17T16:25:32;14.50;99.90
54264;DHT22;40178;53.042;6.406;2022-10-17T16:27:58;14.60;99.90
54264;DHT22;40178;53.042;6.406;2022-10-17T16:30:26;14.60;99.90
54264;DHT22;40178;53.042;6.406;2022-10-17T16:32:53;14.50;99.90
54264;DHT22;40178;53.042;6.406;2022-10-17T16:35:21;14.40;99.90
54264;DHT22;40178;53.042;6.406;2022-10-17T16:37:47;14.30;99.90
54264;DHT22;40178;53.042;6.406;2022-10-17T16:40:14;14.40;99.90
54264;DHT22;40178;53.042;6.406;2022-10-17T16:42:40;14.30;99.90
54264;DHT22;40178;53.042;6.406;2022-10-17T16:45:05;14.30;99.90
54264;DHT22;40178;53.042;6.406;2022-10-17T16:47:31;14.10;99.90
54264;DHT22;40178;53.042;6.406;2022-10-17T16:49:57;14.10;99.90
54264;DHT22;40178;53.042;6.406;2022-10-17T16:52:22;14.10;99.90
54264;DHT22;40178;53.042;6.406;2022-10-17T16:54:48;14.10;99.90
54264;DHT22;40178;53.042;6.406;2022-10-17T16:57:13;14.00;99.90
54264;DHT22;40178;53.042;6.406;2022-10-17T16:59:39;14.00;99.90
54264;DHT22;40178;53.042;6.406;2022-10-17T17:02:05;14.10;99.90
54264;DHT22;40178;53.042;6.406;2022-10-17T17:04:30;14.00;99.90
54264;DHT22;40178;53.042;6.406;2022-10-17T17:06:56;14.00;99.90
54264;DHT22;40178;53.042;6.406;2022-10-17T17:09:21;13.90;99.90
54264;DHT22;40178;53.042;6.406;2022-10-17T17:11:47;14.10;99.90
54264;DHT22;40178;53.042;6.406;2022-10-17T17:14:13;14.10;99.90
54264;DHT22;40178;53.042;6.406;2022-10-17T17:16:38;14.10;99.90
54264;DHT22;40178;53.042;6.406;2022-10-17T17:19:06;13.90;99.90